createdAt,value
2023-05-14T00:01:56.063Z,30.35
2023-05-14T00:03:58.991Z,23.98
2023-05-14T00:06:02.137Z,25.17
2023-05-14T00:08:06.738Z,22.20
2023-05-14T00:10:10.602Z,26.57
2023-05-14T00:12:13.590Z,23.17
2023-05-14T00:14:16.596Z,25.50
2023-05-14T00:16:19.515Z,25.60
2023-05-14T00:18:22.457Z,23.30
2023-05-14T00:20:25.475Z,22.95
2023-05-14T00:22:28.692Z,21.20
2023-05-14T00:24:33.131Z,29.15
2023-05-14T00:26:36.089Z,27.98
2023-05-14T00:28:39.138Z,27.85
2023-05-14T00:30:42.207Z,26.88
2023-05-14T00:32:45.152Z,26.67
2023-05-14T00:34:48.157Z,24.25
2023-05-14T00:36:51.828Z,22.15
2023-05-14T00:38:54.931Z,24.77
2023-05-14T00:40:59.261Z,25.13
2023-05-14T00:43:02.389Z,22.65
2023-05-14T00:45:07.372Z,25.10
2023-05-14T00:47:10.303Z,20.92
2023-05-14T00:49:14.974Z,23.58
2023-05-14T00:51:19.381Z,22.48
2023-05-14T00:53:22.640Z,21.65
2023-05-14T00:55:25.960Z,21.33
2023-05-14T00:57:30.372Z,22.15
2023-05-14T00:59:33.349Z,22.85
2023-05-14T01:01:36.419Z,22.60
2023-05-14T01:03:39.614Z,22.13
2023-05-14T01:05:53.787Z,23.25
2023-05-14T01:08:05.709Z,23.67
2023-05-14T01:10:14.835Z,18.90
2023-05-14T01:12:22.748Z,23.60
2023-05-14T01:14:45.655Z,21.90
2023-05-14T01:16:50.700Z,21.95
2023-05-14T01:18:55.842Z,21.77
2023-05-14T01:20:58.695Z,20.50
2023-05-14T01:23:03.215Z,21.05
2023-05-14T01:25:07.546Z,18.70
2023-05-14T01:27:18.014Z,23.33
2023-05-14T01:29:23.459Z,20.05
2023-05-14T01:31:28.972Z,24.80
2023-05-14T01:35:37.906Z,24.63
2023-05-14T01:37:42.907Z,20.02
2023-05-14T01:39:51.336Z,22.73
2023-05-14T01:41:55.662Z,22.00
2023-05-14T01:43:58.765Z,17.98
2023-05-14T01:46:01.972Z,23.00
2023-05-14T01:48:05.626Z,19.58
2023-05-14T01:50:09.152Z,19.85
2023-05-14T01:52:12.444Z,23.35
2023-05-14T01:54:15.462Z,20.60
2023-05-14T01:56:22.066Z,19.48
2023-05-14T01:58:25.135Z,19.27
2023-05-14T02:00:28.252Z,21.70
2023-05-14T02:02:31.164Z,18.17
2023-05-14T02:04:34.030Z,23.00
2023-05-14T02:06:37.240Z,18.63
2023-05-14T02:08:40.333Z,20.23
2023-05-14T02:10:43.300Z,22.63
2023-05-14T02:12:47.731Z,22.98
2023-05-14T02:14:50.894Z,19.88
2023-05-14T02:16:53.725Z,25.80
2023-05-14T02:18:56.788Z,19.42
2023-05-14T02:20:59.894Z,23.45
2023-05-14T02:23:02.997Z,23.02
2023-05-14T02:25:06.789Z,17.75
2023-05-14T02:27:09.785Z,20.33
2023-05-14T02:29:14.161Z,20.13
2023-05-14T02:31:19.677Z,20.80
2023-05-14T02:35:25.461Z,18.23
2023-05-14T02:37:28.324Z,20.92
2023-05-14T02:39:31.356Z,22.02
2023-05-14T02:41:34.258Z,25.52
2023-05-14T02:43:37.226Z,24.23
2023-05-14T02:45:41.672Z,26.67
2023-05-14T02:47:44.706Z,20.52
2023-05-14T02:49:47.661Z,24.77
2023-05-14T02:51:50.665Z,26.73
2023-05-14T02:53:53.694Z,21.63
2023-05-14T02:55:56.681Z,19.75
2023-05-14T02:57:59.862Z,19.52
2023-05-14T03:00:02.800Z,19.83
2023-05-14T03:02:09.451Z,21.58
2023-05-14T03:04:13.178Z,21.27
2023-05-14T03:06:16.081Z,22.50
2023-05-14T03:08:19.359Z,20.95
2023-05-14T03:10:22.386Z,19.95
2023-05-14T03:12:25.609Z,21.95
2023-05-14T03:14:28.489Z,22.95
2023-05-14T03:16:31.465Z,21.50
2023-05-14T03:18:37.000Z,20.25
2023-05-14T03:20:40.017Z,20.60
2023-05-14T03:22:43.175Z,20.65
2023-05-14T03:24:46.236Z,24.10
2023-05-14T03:26:49.475Z,20.92
2023-05-14T03:28:52.483Z,21.92
2023-05-14T03:30:55.395Z,27.52
2023-05-14T03:32:58.554Z,24.25
2023-05-14T03:35:02.886Z,23.63
2023-05-14T03:37:06.053Z,22.65
2023-05-14T03:39:09.865Z,25.20
2023-05-14T03:41:12.818Z,22.75
2023-05-14T03:43:16.613Z,26.13
2023-05-14T03:45:20.018Z,21.00
2023-05-14T03:47:22.918Z,25.05
2023-05-14T03:49:26.297Z,26.67
2023-05-14T03:51:32.127Z,24.45
2023-05-14T03:53:35.079Z,24.48
2023-05-14T03:55:37.998Z,23.25
2023-05-14T03:57:41.461Z,26.20
2023-05-14T03:59:44.398Z,23.23
2023-05-14T04:01:49.301Z,20.15
2023-05-14T04:03:52.454Z,28.73
2023-05-14T04:05:56.025Z,26.77
2023-05-14T04:08:00.506Z,25.70
2023-05-14T04:10:04.768Z,27.20
2023-05-14T04:12:10.742Z,26.73
2023-05-14T04:14:13.899Z,20.35
2023-05-14T04:16:17.096Z,23.98
2023-05-14T04:18:20.118Z,23.42
2023-05-14T04:20:25.024Z,24.08
2023-05-14T04:22:28.212Z,26.88
2023-05-14T04:24:32.679Z,26.20
2023-05-14T04:26:35.775Z,21.95
2023-05-14T04:28:38.721Z,25.85
2023-05-14T04:30:41.820Z,21.50
2023-05-14T04:32:44.768Z,22.85
2023-05-14T04:34:47.782Z,22.38
2023-05-14T04:36:51.785Z,23.98
2023-05-14T04:38:54.674Z,23.70
2023-05-14T04:40:58.973Z,27.50
2023-05-14T04:43:01.950Z,23.73
2023-05-14T04:45:05.684Z,19.83
2023-05-14T04:47:08.672Z,21.13
2023-05-14T04:49:11.981Z,26.98
2023-05-14T04:51:14.984Z,23.85
2023-05-14T04:53:17.933Z,21.73
2023-05-14T04:55:20.933Z,29.48
2023-05-14T04:57:25.373Z,26.13
2023-05-14T04:59:28.383Z,23.00
2023-05-14T05:01:31.351Z,28.05
2023-05-14T05:03:34.317Z,28.23
2023-05-14T05:05:37.260Z,28.65
2023-05-14T05:07:40.263Z,22.50
2023-05-14T05:09:44.278Z,24.15
2023-05-14T05:11:47.209Z,23.02
2023-05-14T05:13:51.548Z,22.92
2023-05-14T05:15:54.560Z,24.88
2023-05-14T05:17:57.402Z,29.15
2023-05-14T05:20:00.408Z,24.08
2023-05-14T05:22:03.559Z,25.08
2023-05-14T05:24:07.160Z,21.92
2023-05-14T05:26:10.077Z,22.08
2023-05-14T05:28:13.179Z,22.20
2023-05-14T05:30:17.595Z,21.63
2023-05-14T05:32:20.558Z,23.00
2023-05-14T05:34:23.624Z,25.02
2023-05-14T05:36:26.761Z,21.15
2023-05-14T05:38:29.643Z,24.05
2023-05-14T05:40:32.597Z,25.05
2023-05-14T05:42:35.610Z,25.33
2023-05-14T05:44:38.819Z,27.45
2023-05-14T05:46:43.196Z,24.50
2023-05-14T05:48:46.519Z,21.48
2023-05-14T05:50:50.678Z,20.33
2023-05-14T05:52:53.905Z,26.67
2023-05-14T05:54:56.847Z,18.50
2023-05-14T05:57:00.052Z,23.58
2023-05-14T05:59:04.357Z,21.67
2023-05-14T06:01:08.087Z,20.02
2023-05-14T06:03:13.063Z,27.55
2023-05-14T06:05:16.209Z,20.90
2023-05-14T06:07:19.480Z,21.67
2023-05-14T06:09:22.451Z,24.08
2023-05-14T06:11:25.398Z,21.85
2023-05-14T06:13:28.488Z,23.95
2023-05-14T06:15:31.567Z,21.20
2023-05-14T06:17:34.725Z,22.33
2023-05-14T06:19:39.189Z,26.35
2023-05-14T06:21:42.133Z,20.85
2023-05-14T06:23:45.261Z,19.85
2023-05-14T06:25:50.756Z,20.20
2023-05-14T06:29:57.093Z,20.88
2023-05-14T06:32:02.593Z,26.15
2023-05-14T06:34:05.738Z,18.23
2023-05-14T06:36:10.880Z,25.00
2023-05-14T06:38:13.796Z,22.50
2023-05-14T06:40:17.178Z,24.30
2023-05-14T06:42:20.246Z,22.55
2023-05-14T06:44:23.777Z,25.05
2023-05-14T06:46:26.707Z,20.83
2023-05-14T06:48:29.966Z,20.70
2023-05-14T06:50:32.974Z,18.25
2023-05-14T06:52:37.670Z,21.95
2023-05-14T06:54:40.608Z,21.15
2023-05-14T06:56:43.453Z,20.80
2023-05-14T06:58:46.691Z,22.23
2023-05-14T07:00:49.685Z,21.10
2023-05-14T07:02:52.675Z,23.42
2023-05-14T07:04:56.296Z,19.75
2023-05-14T07:06:59.257Z,19.80
2023-05-14T07:09:03.880Z,17.27
2023-05-14T07:11:06.775Z,20.52
2023-05-14T07:13:09.927Z,26.10
2023-05-14T07:15:13.041Z,16.65
2023-05-14T07:17:16.014Z,15.60
2023-05-14T07:19:19.046Z,18.88
2023-05-14T07:21:22.033Z,21.27
2023-05-14T07:23:25.129Z,20.33
2023-05-14T07:25:29.573Z,19.38
2023-05-14T07:27:32.523Z,20.63
2023-05-14T07:29:35.484Z,20.83
2023-05-14T07:31:38.669Z,20.88
2023-05-14T07:33:41.640Z,19.60
2023-05-14T07:35:44.926Z,15.05
2023-05-14T07:37:47.956Z,19.52
2023-05-14T07:39:51.236Z,13.90
2023-05-14T07:41:55.939Z,17.40
2023-05-14T07:43:58.817Z,14.57
2023-05-14T07:46:01.697Z,13.52
2023-05-14T07:48:05.098Z,15.48
2023-05-14T07:50:09.235Z,12.95
2023-05-14T07:52:12.361Z,13.02
2023-05-14T07:54:15.333Z,15.88
2023-05-14T07:56:18.510Z,12.80
2023-05-14T07:58:23.838Z,16.63
2023-05-14T08:00:27.019Z,17.30
2023-05-14T08:02:30.155Z,12.30
2023-05-14T08:04:33.231Z,12.00
2023-05-14T08:06:36.352Z,17.33
2023-05-14T08:08:39.347Z,12.82
2023-05-14T08:10:42.207Z,16.40
2023-05-14T08:12:45.278Z,12.13
2023-05-14T08:14:49.598Z,12.90
2023-05-14T08:16:52.731Z,13.98
2023-05-14T08:18:56.128Z,14.00
2023-05-14T08:20:59.069Z,11.98
2023-05-14T08:23:02.124Z,11.40
2023-05-14T08:25:06.760Z,11.43
2023-05-14T08:27:10.010Z,13.50
2023-05-14T08:29:15.461Z,14.13
2023-05-14T08:31:20.810Z,13.95
2023-05-14T08:33:23.980Z,13.40
2023-05-14T08:35:26.902Z,10.35
2023-05-14T08:37:29.806Z,10.65
2023-05-14T08:39:32.658Z,14.10
2023-05-14T08:41:36.707Z,12.85
2023-05-14T08:43:46.492Z,11.23
2023-05-14T08:45:54.157Z,9.35
2023-05-14T08:48:00.169Z,12.48
2023-05-14T08:50:05.306Z,12.55
2023-05-14T08:52:09.085Z,14.05
2023-05-14T08:54:15.694Z,11.50
2023-05-14T08:56:19.737Z,9.40
2023-05-14T08:58:22.771Z,15.07
2023-05-14T09:00:26.970Z,10.40
2023-05-14T09:02:31.799Z,14.80
2023-05-14T09:04:37.361Z,14.32
2023-05-14T09:06:42.587Z,11.48
2023-05-14T09:08:46.666Z,10.18
2023-05-14T09:10:49.603Z,12.88
2023-05-14T09:12:52.473Z,17.40
2023-05-14T09:14:55.626Z,10.07
2023-05-14T09:16:58.727Z,13.20
2023-05-14T09:19:02.186Z,15.77
2023-05-14T09:21:08.659Z,13.10
2023-05-14T09:23:11.699Z,10.68
2023-05-14T09:25:14.566Z,10.65
2023-05-14T09:27:22.485Z,10.90
2023-05-14T09:29:26.328Z,10.63
2023-05-14T09:31:31.015Z,10.93
2023-05-14T09:33:34.099Z,16.58
2023-05-14T09:35:41.709Z,14.57
2023-05-14T09:37:47.918Z,9.30
2023-05-14T09:39:51.345Z,10.75
2023-05-14T09:41:54.538Z,10.30
2023-05-14T09:43:58.837Z,19.17
2023-05-14T09:46:01.685Z,14.80
2023-05-14T09:48:05.190Z,11.23
2023-05-14T09:50:09.718Z,10.02
2023-05-14T09:52:12.767Z,17.70
2023-05-14T09:54:17.277Z,11.15
2023-05-14T09:56:20.236Z,9.98
2023-05-14T09:58:23.075Z,11.25
2023-05-14T10:00:26.533Z,9.77
2023-05-14T10:02:38.090Z,14.27
2023-05-14T10:04:41.450Z,10.43
2023-05-14T10:06:47.910Z,12.32
2023-05-14T10:08:55.067Z,11.65
2023-05-14T10:10:59.972Z,12.05
2023-05-14T10:13:06.001Z,11.07
2023-05-14T10:15:16.872Z,10.32
2023-05-14T10:17:21.733Z,13.20
2023-05-14T10:19:25.937Z,10.20
2023-05-14T10:21:32.568Z,10.13
2023-05-14T10:23:41.045Z,9.73
2023-05-14T10:25:44.263Z,10.80
2023-05-14T10:27:49.096Z,18.25
2023-05-14T10:29:56.168Z,12.90
2023-05-14T10:31:59.075Z,13.07
2023-05-14T10:34:02.351Z,10.88
2023-05-14T10:36:08.489Z,9.63
2023-05-14T10:38:15.219Z,9.98
2023-05-14T10:40:19.580Z,10.65
2023-05-14T10:42:25.111Z,7.93
2023-05-14T10:44:30.335Z,9.55
2023-05-14T10:46:33.521Z,11.43
2023-05-14T10:48:38.025Z,13.20
2023-05-14T10:50:43.330Z,13.82
2023-05-14T10:52:46.670Z,13.90
2023-05-14T10:54:51.496Z,9.40
2023-05-14T10:56:54.614Z,11.90
2023-05-14T10:59:00.356Z,12.52
2023-05-14T11:01:06.907Z,10.02
2023-05-14T11:03:11.041Z,8.25
2023-05-14T11:05:16.187Z,11.75
2023-05-14T11:07:24.140Z,10.82
2023-05-14T11:09:27.451Z,12.45
2023-05-14T11:11:30.727Z,9.55
2023-05-14T11:13:34.867Z,10.57
2023-05-14T11:15:39.109Z,8.85
2023-05-14T11:17:44.819Z,9.52
2023-05-14T11:19:49.742Z,7.88
2023-05-14T11:21:53.837Z,11.10
2023-05-14T11:23:57.564Z,8.60
2023-05-14T11:26:00.422Z,9.27
2023-05-14T11:28:03.417Z,10.18
2023-05-14T11:30:12.675Z,8.93
2023-05-14T11:32:16.471Z,10.45
2023-05-14T11:34:21.979Z,8.60
2023-05-14T11:38:27.441Z,12.95
2023-05-14T11:40:30.684Z,8.63
2023-05-14T11:42:33.700Z,7.97
2023-05-14T11:44:38.836Z,7.53
2023-05-14T11:46:41.779Z,6.70
2023-05-14T11:48:44.901Z,6.35
2023-05-14T11:50:51.496Z,6.40
2023-05-14T11:52:57.431Z,8.13
2023-05-14T11:55:00.549Z,12.77
2023-05-14T11:57:09.227Z,9.60
2023-05-14T11:59:12.668Z,7.05
2023-05-14T12:01:16.436Z,9.45
2023-05-14T12:03:26.157Z,8.02
2023-05-14T12:05:29.363Z,8.48
2023-05-14T12:07:33.863Z,6.07
2023-05-14T12:09:39.514Z,6.20
2023-05-14T12:13:45.158Z,6.82
2023-05-14T12:15:49.030Z,5.10
2023-05-14T12:17:52.304Z,7.28
2023-05-14T12:19:57.655Z,5.88
2023-05-14T12:24:09.774Z,6.55
2023-05-14T12:26:13.664Z,4.93
2023-05-14T12:28:16.755Z,5.40
2023-05-14T12:30:21.468Z,7.93
2023-05-14T12:32:26.746Z,5.93
2023-05-14T12:34:29.762Z,8.48
2023-05-14T12:36:33.032Z,6.10
2023-05-14T12:38:38.078Z,6.43
2023-05-14T12:40:42.455Z,8.10
2023-05-14T12:42:45.387Z,5.43
2023-05-14T12:44:48.441Z,6.05
2023-05-14T12:46:51.446Z,6.93
2023-05-14T12:48:54.760Z,6.47
2023-05-14T12:50:57.776Z,7.10
2023-05-14T12:53:00.699Z,7.18
2023-05-14T12:55:04.108Z,5.55
2023-05-14T12:57:08.676Z,6.47
2023-05-14T12:59:11.647Z,7.03
2023-05-14T13:01:14.786Z,6.53
2023-05-14T13:03:17.780Z,6.35
2023-05-14T13:05:20.825Z,7.75
2023-05-14T13:07:23.926Z,8.45
2023-05-14T13:09:28.497Z,5.85
2023-05-14T13:11:32.431Z,8.30
2023-05-14T13:13:37.230Z,5.72
2023-05-14T13:15:40.190Z,6.40
2023-05-14T13:17:43.050Z,5.30
2023-05-14T13:19:46.213Z,6.05
2023-05-14T13:21:49.131Z,5.97
2023-05-14T13:23:52.267Z,6.50
2023-05-14T13:25:55.125Z,7.97
2023-05-14T13:27:58.113Z,6.72
2023-05-14T13:30:02.501Z,6.60
2023-05-14T13:32:06.254Z,7.10
2023-05-14T13:34:10.553Z,6.57
2023-05-14T13:36:15.374Z,6.32
2023-05-14T13:38:18.253Z,6.40
2023-05-14T13:40:21.350Z,7.25
2023-05-14T13:42:24.296Z,8.02
2023-05-14T13:44:27.387Z,8.45
2023-05-14T13:46:31.733Z,6.10
2023-05-14T13:48:36.014Z,8.38
2023-05-14T13:50:38.854Z,9.55
2023-05-14T13:52:41.802Z,6.90
2023-05-14T13:54:44.725Z,6.32
2023-05-14T13:56:47.838Z,6.40
2023-05-14T13:58:50.724Z,5.72
2023-05-14T14:00:54.176Z,10.40
2023-05-14T14:02:58.631Z,8.10
2023-05-14T14:05:01.662Z,5.07
2023-05-14T14:07:05.138Z,8.82
2023-05-14T14:09:08.200Z,6.90
2023-05-14T14:11:11.123Z,6.05
2023-05-14T14:13:14.168Z,6.38
2023-05-14T14:15:17.031Z,6.05
2023-05-14T14:17:19.968Z,5.50
2023-05-14T14:19:24.326Z,9.60
2023-05-14T14:21:27.372Z,7.93
2023-05-14T14:23:30.457Z,9.85
2023-05-14T14:25:33.488Z,10.23
2023-05-14T14:27:39.087Z,7.13
2023-05-14T14:31:44.853Z,9.75
2023-05-14T14:33:47.826Z,5.70
2023-05-14T14:35:52.257Z,7.00
2023-05-14T14:37:56.056Z,7.57
2023-05-14T14:39:58.956Z,7.35
2023-05-14T14:42:01.987Z,6.00
2023-05-14T14:44:05.901Z,28.92
2023-05-14T14:46:09.632Z,10.80
2023-05-14T14:48:29.156Z,5.63
2023-05-14T14:50:32.186Z,8.75
2023-05-14T14:52:36.963Z,7.15
2023-05-14T14:54:39.873Z,8.57
2023-05-14T14:56:43.808Z,10.10
2023-05-14T14:58:46.806Z,10.43
2023-05-14T15:00:51.567Z,8.68
2023-05-14T15:02:54.860Z,9.98
2023-05-14T15:04:57.806Z,6.53
2023-05-14T15:07:01.038Z,5.97
2023-05-14T15:09:05.660Z,8.68
2023-05-14T15:11:08.750Z,7.07
2023-05-14T15:13:12.717Z,8.55
2023-05-14T15:15:15.778Z,7.45
2023-05-14T15:17:18.642Z,12.30
2023-05-14T15:19:21.659Z,7.15
2023-05-14T15:21:24.764Z,7.28
2023-05-14T15:23:27.832Z,15.30
2023-05-14T15:25:32.255Z,8.38
2023-05-14T15:27:35.150Z,6.93
2023-05-14T15:29:38.088Z,5.97
2023-05-14T15:31:41.653Z,7.95
2023-05-14T15:33:44.479Z,8.98
2023-05-14T15:35:47.699Z,8.18
2023-05-14T15:37:50.648Z,8.65
2023-05-14T15:39:54.237Z,7.38
2023-05-14T15:41:58.668Z,7.13
2023-05-14T15:44:01.565Z,5.47
2023-05-14T15:46:04.417Z,10.00
2023-05-14T15:48:07.444Z,13.10
2023-05-14T15:50:10.446Z,7.88
2023-05-14T15:52:14.213Z,8.10
2023-05-14T15:54:17.117Z,10.05
2023-05-14T15:56:20.046Z,7.90
2023-05-14T15:58:24.507Z,20.38
2023-05-14T16:00:27.628Z,7.40
2023-05-14T16:02:30.835Z,8.40
2023-05-14T16:04:33.994Z,8.55
2023-05-14T16:06:36.938Z,13.57
2023-05-14T16:08:39.874Z,10.70
2023-05-14T16:10:42.696Z,9.20
2023-05-14T16:12:45.693Z,8.23
2023-05-14T16:14:50.611Z,7.80
2023-05-14T16:16:54.388Z,7.32
2023-05-14T16:18:57.478Z,8.88
2023-05-14T16:21:00.770Z,10.75
2023-05-14T16:23:03.636Z,14.75
2023-05-14T16:25:07.137Z,24.80
2023-05-14T16:27:10.038Z,15.68
2023-05-14T16:29:13.013Z,13.75
2023-05-14T16:31:17.378Z,31.27
2023-05-14T16:33:20.878Z,34.55
2023-05-14T16:35:24.095Z,29.15
2023-05-14T16:37:27.134Z,34.67
2023-05-14T16:39:30.320Z,23.75
2023-05-14T16:41:33.704Z,22.83
2023-05-14T16:43:36.622Z,13.90
2023-05-14T16:45:40.710Z,17.35
2023-05-14T16:47:45.375Z,14.48
2023-05-14T16:51:51.510Z,12.48
2023-05-14T16:53:55.644Z,14.77
2023-05-14T16:55:58.830Z,11.52
2023-05-14T16:58:01.760Z,10.77
2023-05-14T17:00:06.508Z,13.10
2023-05-14T17:02:09.628Z,11.70
2023-05-14T17:04:14.004Z,10.70
2023-05-14T17:06:17.055Z,17.77
2023-05-14T17:08:19.928Z,9.35
2023-05-14T17:10:24.205Z,9.68
2023-05-14T17:12:27.622Z,9.60
2023-05-14T17:14:30.713Z,6.95
2023-05-14T17:16:33.565Z,7.68
2023-05-14T17:18:36.486Z,9.57
2023-05-14T17:20:40.944Z,7.85
2023-05-14T17:22:43.903Z,11.10
2023-05-14T17:24:46.800Z,7.28
2023-05-14T17:26:49.980Z,9.70
2023-05-14T17:28:52.822Z,8.20
2023-05-14T17:30:55.676Z,8.57
2023-05-14T17:32:58.792Z,7.40
2023-05-14T17:35:01.964Z,9.00
2023-05-14T17:37:06.810Z,7.85
2023-05-14T17:39:09.792Z,8.30
2023-05-14T17:41:12.720Z,8.38
2023-05-14T17:43:15.819Z,7.70
2023-05-14T17:45:21.009Z,13.38
2023-05-14T17:47:24.060Z,10.15
2023-05-14T17:49:26.988Z,7.63
2023-05-14T17:51:30.142Z,10.75
2023-05-14T17:53:34.447Z,9.85
2023-05-14T17:55:43.810Z,11.98
2023-05-14T17:57:46.987Z,11.40
2023-05-14T17:59:49.935Z,14.90
2023-05-14T18:01:52.911Z,16.63
2023-05-14T18:03:55.871Z,15.18
2023-05-14T18:05:59.792Z,11.25
2023-05-14T18:08:02.826Z,14.63
2023-05-14T18:10:08.714Z,18.33
2023-05-14T18:12:11.646Z,24.25
2023-05-14T18:14:14.472Z,21.77
2023-05-14T18:16:17.564Z,23.77
2023-05-14T18:18:21.824Z,20.70
2023-05-14T18:20:24.764Z,19.55
2023-05-14T18:22:27.626Z,19.67
2023-05-14T18:24:30.612Z,18.55
2023-05-14T18:26:35.134Z,17.42
2023-05-14T18:28:38.278Z,9.07
2023-05-14T18:30:41.262Z,8.77
2023-05-14T18:32:45.311Z,10.55
2023-05-14T18:34:48.252Z,10.63
2023-05-14T18:36:51.402Z,13.70
2023-05-14T18:38:54.295Z,8.50
2023-05-14T18:40:57.237Z,9.23
2023-05-14T18:43:01.482Z,11.65
2023-05-14T18:45:05.100Z,8.10
2023-05-14T18:47:08.765Z,10.52
2023-05-14T18:49:12.124Z,9.20
2023-05-14T18:51:15.111Z,8.38
2023-05-14T18:53:18.046Z,7.47
2023-05-14T18:55:21.061Z,6.70
2023-05-14T18:57:24.305Z,7.70
2023-05-14T18:59:28.862Z,7.70
2023-05-14T19:01:31.874Z,6.43
2023-05-14T19:03:34.889Z,6.90
2023-05-14T19:05:38.191Z,7.03
2023-05-14T19:07:44.153Z,7.55
2023-05-14T19:09:47.256Z,7.43
2023-05-14T19:11:50.451Z,7.20
2023-05-14T19:13:53.720Z,8.73
2023-05-14T19:15:58.173Z,7.35
2023-05-14T19:18:01.700Z,6.30
2023-05-14T19:20:05.405Z,8.48
2023-05-14T19:22:08.591Z,8.02
2023-05-14T19:24:11.691Z,7.45
2023-05-14T19:26:14.660Z,6.82
2023-05-14T19:28:20.077Z,7.30
2023-05-14T19:32:28.079Z,10.38
2023-05-14T19:34:31.366Z,6.07
2023-05-14T19:36:34.217Z,8.60
2023-05-14T19:38:37.810Z,11.73
2023-05-14T19:40:40.901Z,9.40
2023-05-14T19:42:44.520Z,8.98
2023-05-14T19:44:47.732Z,9.65
2023-05-14T19:46:51.535Z,7.60
2023-05-14T19:48:55.906Z,12.50
2023-05-14T19:50:58.955Z,8.65
2023-05-14T19:53:02.608Z,12.07
2023-05-14T19:55:06.228Z,7.43
2023-05-14T19:57:10.108Z,7.88
2023-05-14T19:59:13.287Z,11.98
2023-05-14T20:01:16.504Z,11.15
2023-05-14T20:03:19.611Z,6.32
2023-05-14T20:05:24.209Z,11.48
2023-05-14T20:07:27.902Z,14.10
2023-05-14T20:09:30.752Z,13.68
2023-05-14T20:11:33.785Z,12.38
2023-05-14T20:13:37.180Z,12.35
2023-05-14T20:15:40.239Z,15.93
2023-05-14T20:17:43.240Z,13.98
2023-05-14T20:19:46.662Z,11.07
2023-05-14T20:21:51.169Z,11.63
2023-05-14T20:23:54.121Z,12.90
2023-05-14T20:25:57.036Z,15.90
2023-05-14T20:28:02.687Z,11.05
2023-05-14T20:30:06.967Z,10.73
2023-05-14T20:32:10.338Z,13.87
2023-05-14T20:34:13.161Z,10.23
2023-05-14T20:36:16.463Z,15.45
2023-05-14T20:38:20.889Z,18.75
2023-05-14T20:40:24.535Z,17.55
2023-05-14T20:42:27.546Z,22.58
2023-05-14T20:44:30.507Z,21.90
2023-05-14T20:46:33.581Z,18.55
2023-05-14T20:48:36.729Z,15.88
2023-05-14T20:50:39.512Z,14.48
2023-05-14T20:52:42.557Z,13.57
2023-05-14T20:54:47.050Z,12.27
2023-05-14T20:56:50.009Z,12.23
2023-05-14T20:58:52.809Z,16.00
2023-05-14T21:00:55.844Z,14.90
2023-05-14T21:03:00.617Z,12.73
2023-05-14T21:05:04.313Z,12.48
2023-05-14T21:07:07.702Z,12.00
2023-05-14T21:09:11.139Z,12.25
2023-05-14T21:11:15.468Z,11.13
2023-05-14T21:13:18.439Z,17.52
2023-05-14T21:15:21.602Z,20.02
2023-05-14T21:17:24.725Z,15.10
2023-05-14T21:19:27.729Z,14.95
2023-05-14T21:21:30.640Z,13.85
2023-05-14T21:23:33.544Z,12.60
2023-05-14T21:25:36.789Z,13.35
2023-05-14T21:27:41.235Z,11.40
2023-05-14T21:29:46.562Z,11.30
2023-05-14T21:31:49.517Z,37.13
2023-05-14T21:33:52.493Z,9.10
2023-05-14T21:35:55.485Z,7.40
2023-05-14T21:37:58.628Z,8.50
2023-05-14T21:40:01.456Z,6.70
2023-05-14T21:42:05.127Z,8.43
2023-05-14T21:44:09.469Z,10.90
2023-05-14T21:46:12.716Z,8.57
2023-05-14T21:48:15.928Z,10.98
2023-05-14T21:50:19.329Z,6.80
2023-05-14T21:52:22.286Z,9.48
2023-05-14T21:54:25.279Z,8.52
2023-05-14T21:56:28.194Z,7.95
2023-05-14T21:58:31.077Z,8.75
2023-05-14T22:00:35.609Z,10.88
2023-05-14T22:02:38.572Z,8.20
2023-05-14T22:04:41.457Z,8.32
2023-05-14T22:06:44.758Z,7.32
2023-05-14T22:08:47.557Z,11.32
2023-05-14T22:10:50.650Z,9.02
2023-05-14T22:12:53.565Z,9.05
2023-05-14T22:14:56.438Z,7.90
2023-05-14T22:17:00.788Z,8.95
2023-05-14T22:19:05.350Z,8.65
2023-05-14T22:21:09.515Z,10.68
2023-05-14T22:23:12.401Z,7.55
2023-05-14T22:25:15.364Z,7.65
2023-05-14T22:27:18.312Z,8.35
2023-05-14T22:29:21.315Z,10.98
2023-05-14T22:31:24.320Z,6.63
2023-05-14T22:33:28.677Z,6.68
2023-05-14T22:35:31.577Z,7.03
2023-05-14T22:37:34.497Z,10.73
2023-05-14T22:39:37.712Z,11.63
2023-05-14T22:41:40.704Z,7.28
2023-05-14T22:43:43.760Z,7.68
2023-05-14T22:45:46.649Z,7.75
2023-05-14T22:47:49.609Z,9.50
2023-05-14T22:49:53.990Z,9.25
2023-05-14T22:51:57.077Z,10.80
2023-05-14T22:54:00.154Z,7.57
2023-05-14T22:56:03.577Z,9.13
2023-05-14T22:58:07.269Z,7.60
2023-05-14T23:00:11.474Z,7.20
2023-05-14T23:02:14.487Z,12.23
2023-05-14T23:04:17.542Z,7.35
2023-05-14T23:06:21.941Z,9.05
2023-05-14T23:08:25.141Z,7.97
2023-05-14T23:10:28.368Z,6.53
2023-05-14T23:12:31.371Z,9.48
2023-05-14T23:14:34.300Z,10.00
2023-05-14T23:16:37.241Z,9.50
2023-05-14T23:18:40.490Z,8.57
2023-05-14T23:20:44.054Z,10.48
2023-05-14T23:22:48.537Z,8.70
2023-05-14T23:24:51.637Z,10.98
2023-05-14T23:26:54.657Z,9.30
2023-05-14T23:28:57.619Z,7.57
2023-05-14T23:31:00.503Z,10.45
2023-05-14T23:33:03.523Z,9.27
2023-05-14T23:35:06.867Z,9.13
2023-05-14T23:37:09.976Z,9.25
2023-05-14T23:39:14.604Z,7.75
2023-05-14T23:41:17.579Z,14.18
2023-05-14T23:43:20.427Z,8.13
2023-05-14T23:45:23.579Z,10.35
2023-05-14T23:47:26.753Z,12.23
2023-05-14T23:49:29.704Z,7.90
2023-05-14T23:51:32.590Z,7.88
2023-05-14T23:53:35.667Z,8.82
2023-05-14T23:55:40.238Z,6.70
2023-05-14T23:57:43.155Z,8.33
2023-05-14T23:59:46.484Z,8.02
